createdAt,value
2017-09-23T00:02:35.276Z,13.90
2017-09-23T00:17:35.261Z,13.79
2017-09-23T00:32:35.236Z,13.72
2017-09-23T00:47:34.611Z,13.75
2017-09-23T01:02:34.582Z,13.79
2017-09-23T01:17:34.604Z,13.80
2017-09-23T01:32:34.653Z,13.88
2017-09-23T01:47:35.053Z,13.90
2017-09-23T02:02:34.946Z,13.90
2017-09-23T02:17:34.924Z,13.93
2017-09-23T02:32:34.915Z,14.00
2017-09-23T02:47:35.452Z,14.05
2017-09-23T03:02:35.540Z,14.09
2017-09-23T03:17:35.291Z,14.15
2017-09-23T03:32:35.347Z,14.18
2017-09-23T03:47:34.719Z,14.19
2017-09-23T04:02:34.617Z,14.15
2017-09-23T04:17:36.612Z,14.19
2017-09-23T04:32:37.277Z,14.29
2017-09-23T04:47:35.018Z,14.30
2017-09-23T05:02:35.015Z,14.35
2017-09-23T05:17:34.862Z,14.41
2017-09-23T05:32:34.904Z,14.47
2017-09-23T05:47:35.305Z,14.55
2017-09-23T06:02:35.422Z,14.72
2017-09-23T06:17:35.260Z,14.95
2017-09-23T06:32:35.150Z,15.27
2017-09-23T06:47:34.671Z,15.48
2017-09-23T07:02:34.693Z,15.69
2017-09-23T07:17:34.564Z,16.04
2017-09-23T07:32:36.517Z,16.62
2017-09-23T07:47:34.915Z,17.05
2017-09-23T08:02:34.930Z,17.53
2017-09-23T08:17:34.921Z,18.39
2017-09-23T08:32:34.874Z,18.37
2017-09-23T08:47:35.264Z,18.50
2017-09-23T09:02:35.752Z,19.20
2017-09-23T09:17:35.216Z,19.39
2017-09-23T09:32:35.220Z,19.59
2017-09-23T09:47:34.621Z,19.63
2017-09-23T10:02:34.644Z,19.60
2017-09-23T10:17:34.579Z,20.52
2017-09-23T10:32:34.527Z,21.00
2017-09-23T10:47:35.049Z,21.12
2017-09-23T11:02:34.948Z,20.67
2017-09-23T11:17:34.847Z,20.64
2017-09-23T11:32:34.824Z,21.22
2017-09-23T11:47:35.238Z,21.19
2017-09-23T12:02:35.210Z,21.11
2017-09-23T12:17:35.143Z,21.44
2017-09-23T12:32:35.141Z,21.59
2017-09-23T12:47:36.549Z,21.01
2017-09-23T13:02:34.511Z,20.73
2017-09-23T13:17:34.494Z,21.03
2017-09-23T13:32:34.507Z,20.81
2017-09-23T13:47:34.797Z,20.86
2017-09-23T14:02:34.852Z,20.77
2017-09-23T14:17:34.838Z,20.35
2017-09-23T14:32:34.758Z,19.91
2017-09-23T14:47:35.158Z,19.78
2017-09-23T15:02:35.096Z,19.46
2017-09-23T15:17:35.130Z,19.31
2017-09-23T15:32:35.078Z,19.10
2017-09-23T15:47:34.465Z,18.84
2017-09-23T16:02:34.426Z,18.71
2017-09-23T16:17:34.458Z,18.56
2017-09-23T16:32:34.456Z,18.28
2017-09-23T16:47:34.809Z,17.90
2017-09-23T17:02:34.741Z,17.55
2017-09-23T17:17:34.729Z,17.20
2017-09-23T17:32:34.239Z,16.81
2017-09-23T17:47:35.101Z,16.47
2017-09-23T18:02:35.088Z,16.16
2017-09-23T18:17:35.139Z,15.85
2017-09-23T18:32:35.028Z,15.59
2017-09-23T18:47:34.420Z,15.37
2017-09-23T19:02:34.456Z,15.33
2017-09-23T19:17:34.452Z,15.27
2017-09-23T19:32:34.363Z,15.22
2017-09-23T19:47:34.732Z,15.20
2017-09-23T20:02:34.738Z,15.05
2017-09-23T20:17:34.716Z,14.87
2017-09-23T20:32:34.655Z,14.71
2017-09-23T20:47:35.082Z,14.61
2017-09-23T21:02:36.047Z,14.45
2017-09-23T21:17:34.977Z,14.33
2017-09-23T21:32:34.871Z,14.18
2017-09-23T21:47:36.371Z,14.06
2017-09-23T22:02:34.423Z,13.90
2017-09-23T22:17:34.279Z,13.56
2017-09-23T22:32:34.309Z,13.36
2017-09-23T22:47:34.641Z,13.26
2017-09-23T23:02:34.615Z,13.22
2017-09-23T23:17:36.583Z,13.15
2017-09-23T23:32:34.526Z,13.05
2017-09-23T23:47:34.922Z,12.93
